createdAt,value
2019-01-13T00:02:19.355Z,6.00
2019-01-13T00:04:50.087Z,5.98
2019-01-13T00:07:20.644Z,6.04
2019-01-13T00:09:51.310Z,6.01
2019-01-13T00:12:21.984Z,6.02
2019-01-13T00:14:52.615Z,6.01
2019-01-13T00:17:23.235Z,6.10
2019-01-13T00:19:53.752Z,6.06
2019-01-13T00:22:24.305Z,6.04
2019-01-13T00:24:54.966Z,6.08
2019-01-13T00:27:25.637Z,6.09
2019-01-13T00:29:56.314Z,6.08
2019-01-13T00:32:27.005Z,6.10
2019-01-13T00:34:57.615Z,6.10
2019-01-13T00:37:28.235Z,6.09
2019-01-13T00:39:58.896Z,6.11
2019-01-13T00:42:29.518Z,6.08
2019-01-13T00:45:00.211Z,6.13
2019-01-13T00:50:14.613Z,6.07
2019-01-13T00:52:45.410Z,6.11
2019-01-13T00:55:16.655Z,6.09
2019-01-13T00:57:47.282Z,6.10
2019-01-13T01:00:26.376Z,6.12
2019-01-13T01:02:55.516Z,6.13
2019-01-13T01:05:26.105Z,6.08
2019-01-13T01:07:56.578Z,6.07
2019-01-13T01:10:27.123Z,6.05
2019-01-13T01:12:57.640Z,6.12
2019-01-13T01:15:28.158Z,6.11
2019-01-13T01:17:58.731Z,6.13
2019-01-13T01:20:29.206Z,6.09
2019-01-13T01:22:59.732Z,6.09
2019-01-13T01:25:30.289Z,6.08
2019-01-13T01:28:00.791Z,6.04
2019-01-13T01:30:33.587Z,6.06
2019-01-13T01:33:03.619Z,6.04
2019-01-13T01:35:34.105Z,6.09
2019-01-13T01:38:04.620Z,6.03
2019-01-13T01:40:35.190Z,6.01
2019-01-13T01:43:05.792Z,5.98
2019-01-13T01:45:36.287Z,5.92
2019-01-13T01:48:06.880Z,5.94
2019-01-13T01:50:37.446Z,5.93
2019-01-13T01:53:07.980Z,5.94
2019-01-13T01:55:38.554Z,5.94
2019-01-13T01:58:09.152Z,5.96
2019-01-13T02:00:40.839Z,6.00
2019-01-13T02:03:11.503Z,6.03
2019-01-13T02:05:42.038Z,6.00
2019-01-13T02:08:12.542Z,5.95
2019-01-13T02:10:43.086Z,5.95
2019-01-13T02:13:13.556Z,6.01
2019-01-13T02:15:44.063Z,6.01
2019-01-13T02:18:14.607Z,6.04
2019-01-13T02:20:45.118Z,6.04
2019-01-13T02:23:15.613Z,6.06
2019-01-13T02:25:46.113Z,6.08
2019-01-13T02:28:16.608Z,6.09
2019-01-13T02:30:49.244Z,6.12
2019-01-13T02:33:19.397Z,6.13
2019-01-13T02:35:50.164Z,6.11
2019-01-13T02:38:20.643Z,6.10
2019-01-13T02:40:51.289Z,6.13
2019-01-13T02:43:21.764Z,6.16
2019-01-13T02:45:52.244Z,6.13
2019-01-13T02:48:22.847Z,6.13
2019-01-13T02:50:53.365Z,6.16
2019-01-13T02:53:23.839Z,6.10
2019-01-13T02:55:54.370Z,6.09
2019-01-13T02:58:24.880Z,6.10
2019-01-13T03:00:57.235Z,6.15
2019-01-13T03:03:27.685Z,6.10
2019-01-13T03:05:58.191Z,6.14
2019-01-13T03:08:28.696Z,6.15
2019-01-13T03:10:59.645Z,6.17
2019-01-13T03:13:30.117Z,6.13
2019-01-13T03:16:00.621Z,6.15
2019-01-13T03:18:31.184Z,6.18
2019-01-13T03:21:01.705Z,6.22
2019-01-13T03:23:32.233Z,6.21
2019-01-13T03:26:02.838Z,6.22
2019-01-13T03:28:33.317Z,6.21
2019-01-13T03:31:12.040Z,6.19
2019-01-13T03:33:36.105Z,6.21
2019-01-13T03:36:06.844Z,6.21
2019-01-13T03:38:37.325Z,6.25
2019-01-13T03:41:07.909Z,6.24
2019-01-13T03:43:38.379Z,6.21
2019-01-13T03:46:08.896Z,6.20
2019-01-13T03:48:39.440Z,6.24
2019-01-13T03:51:09.953Z,6.21
2019-01-13T03:53:40.436Z,6.26
2019-01-13T03:56:10.982Z,6.28
2019-01-13T03:58:41.502Z,6.30
2019-01-13T04:01:18.559Z,6.27
2019-01-13T04:03:44.258Z,6.28
2019-01-13T04:06:14.808Z,6.22
2019-01-13T04:08:45.338Z,6.28
2019-01-13T04:11:15.882Z,6.28
2019-01-13T04:13:46.400Z,6.25
2019-01-13T04:16:16.862Z,6.28
2019-01-13T04:18:47.415Z,6.21
2019-01-13T04:21:17.988Z,6.27
2019-01-13T04:23:48.529Z,6.31
2019-01-13T04:26:19.074Z,6.35
2019-01-13T04:28:49.560Z,6.35
2019-01-13T04:31:26.685Z,6.32
2019-01-13T04:33:52.351Z,6.32
2019-01-13T04:36:22.890Z,6.34
2019-01-13T04:38:53.372Z,6.32
2019-01-13T04:41:23.944Z,6.38
2019-01-13T04:43:54.505Z,6.33
2019-01-13T04:46:25.002Z,6.38
2019-01-13T04:48:55.598Z,6.34
2019-01-13T04:51:26.082Z,6.35
2019-01-13T04:53:56.628Z,6.38
2019-01-13T04:56:27.205Z,6.43
2019-01-13T04:58:57.704Z,6.34
2019-01-13T05:01:34.393Z,6.40
2019-01-13T05:04:00.526Z,6.38
2019-01-13T05:06:31.042Z,6.39
2019-01-13T05:09:01.597Z,6.41
2019-01-13T05:11:32.230Z,6.43
2019-01-13T05:14:02.729Z,6.41
2019-01-13T05:16:33.274Z,6.40
2019-01-13T05:19:03.818Z,6.36
2019-01-13T05:21:34.370Z,6.37
2019-01-13T05:24:05.015Z,6.39
2019-01-13T05:26:35.591Z,6.36
2019-01-13T05:29:06.098Z,6.43
2019-01-13T05:31:41.987Z,6.41
2019-01-13T05:34:08.961Z,6.39
2019-01-13T05:36:39.445Z,6.40
2019-01-13T05:39:09.942Z,6.32
2019-01-13T05:41:40.478Z,6.36
2019-01-13T05:44:10.995Z,6.30
2019-01-13T05:46:41.526Z,6.33
2019-01-13T05:49:12.121Z,6.30
2019-01-13T05:51:42.587Z,6.26
2019-01-13T05:54:13.139Z,6.34
2019-01-13T05:56:43.732Z,6.36
2019-01-13T05:59:14.270Z,6.32
2019-01-13T06:01:49.158Z,6.32
2019-01-13T06:04:17.202Z,6.37
2019-01-13T06:06:47.787Z,6.35
2019-01-13T06:09:18.324Z,6.33
2019-01-13T06:11:48.931Z,6.42
2019-01-13T06:14:19.488Z,6.36
2019-01-13T06:16:50.024Z,6.31
2019-01-13T06:19:20.629Z,6.34
2019-01-13T06:21:51.143Z,6.38
2019-01-13T06:24:21.737Z,6.38
2019-01-13T06:26:52.293Z,6.44
2019-01-13T06:29:22.837Z,6.42
2019-01-13T06:31:56.496Z,6.43
2019-01-13T06:34:25.597Z,6.47
2019-01-13T06:36:56.072Z,6.46
2019-01-13T06:39:26.537Z,6.46
2019-01-13T06:41:56.997Z,6.52
2019-01-13T06:44:27.469Z,6.48
2019-01-13T07:11:38.365Z,6.49
2019-01-13T07:14:08.878Z,6.54
2019-01-13T07:16:39.598Z,6.51
2019-01-13T07:19:10.212Z,6.54
2019-01-13T07:21:40.799Z,6.50
2019-01-13T07:24:11.606Z,6.56
2019-01-13T07:26:45.714Z,6.52
2019-01-13T07:29:19.582Z,6.55
2019-01-13T07:31:53.659Z,6.56
2019-01-13T07:34:25.682Z,6.55
2019-01-13T07:36:56.260Z,6.55
2019-01-13T07:39:27.031Z,6.56
2019-01-13T07:41:57.761Z,6.57
2019-01-13T07:44:47.840Z,6.62
2019-01-13T07:47:18.977Z,6.66
2019-01-13T07:49:49.551Z,6.60
2019-01-13T07:52:21.449Z,6.61
2019-01-13T07:54:52.293Z,6.65
2019-01-13T07:57:26.456Z,6.71
2019-01-13T07:59:57.909Z,6.63
2019-01-13T08:02:28.542Z,6.72
2019-01-13T08:04:59.910Z,6.70
2019-01-13T08:07:30.485Z,6.76
2019-01-13T08:10:01.990Z,6.76
2019-01-13T08:12:32.575Z,6.73
2019-01-13T08:15:03.220Z,6.77
2019-01-13T08:17:33.862Z,6.75
2019-01-13T08:20:05.694Z,6.78
2019-01-13T08:22:36.351Z,6.77
2019-01-13T08:25:10.130Z,6.83
2019-01-13T08:27:40.757Z,6.87
2019-01-13T08:30:29.905Z,6.82
2019-01-13T08:33:00.469Z,6.80
2019-01-13T08:35:31.167Z,6.85
2019-01-13T08:38:01.767Z,6.85
2019-01-13T08:40:34.788Z,6.87
2019-01-13T08:43:04.755Z,6.87
2019-01-13T08:45:37.948Z,6.89
2019-01-13T08:48:08.998Z,7.00
2019-01-13T08:50:40.709Z,6.99
2019-01-13T08:53:12.066Z,6.95
2019-01-13T08:55:42.855Z,7.02
2019-01-13T08:58:13.464Z,7.00
2019-01-13T09:00:44.488Z,7.04
2019-01-13T09:03:23.036Z,7.01
2019-01-13T09:05:53.687Z,7.05
2019-01-13T09:08:25.027Z,7.14
2019-01-13T09:10:56.060Z,7.09
2019-01-13T09:13:57.046Z,7.12
2019-01-13T09:16:29.499Z,7.19
2019-01-13T09:19:00.558Z,7.21
2019-01-13T09:21:31.166Z,7.22
2019-01-13T09:24:04.967Z,7.25
2019-01-13T10:04:29.391Z,7.72
2019-01-13T10:07:03.650Z,7.77
2019-01-13T10:09:34.250Z,7.78
2019-01-13T10:12:04.987Z,7.81
2019-01-13T10:14:35.558Z,7.86
2019-01-13T10:17:06.212Z,7.86
2019-01-13T10:19:36.863Z,7.89
2019-01-13T10:22:07.557Z,7.89
2019-01-13T10:24:38.288Z,7.91
2019-01-13T10:27:08.839Z,7.96
2019-01-13T10:29:39.417Z,7.97
2019-01-13T10:32:10.415Z,8.02
2019-01-13T10:35:00.439Z,8.07
2019-01-13T10:37:31.318Z,8.08
2019-01-13T10:40:11.795Z,8.11
2019-01-13T12:06:52.537Z,8.12
2019-01-13T12:09:23.399Z,8.07
2019-01-13T12:11:54.055Z,8.09
2019-01-13T12:14:24.784Z,8.09
2019-01-13T12:16:56.079Z,8.09
2019-01-13T12:25:28.606Z,8.08
2019-01-13T12:25:30.201Z,8.06
2019-01-13T12:55:43.629Z,8.02
2019-01-13T12:58:14.544Z,8.01
2019-01-13T13:00:46.229Z,8.02
2019-01-13T13:03:16.864Z,8.04
2019-01-13T13:05:47.378Z,7.99
2019-01-13T13:08:17.923Z,8.02
2019-01-13T13:10:52.428Z,8.04
2019-01-13T13:13:22.969Z,8.03
2019-01-13T13:15:53.497Z,8.06
2019-01-13T13:18:24.030Z,8.08
2019-01-13T13:20:54.542Z,8.13
2019-01-13T13:23:25.053Z,8.19
2019-01-13T13:25:55.632Z,8.17
2019-01-13T13:28:26.133Z,8.12
2019-01-13T13:30:56.615Z,8.10
2019-01-13T13:33:27.129Z,8.06
2019-01-13T13:35:57.593Z,8.06
2019-01-13T13:38:28.115Z,8.01
2019-01-13T13:40:59.888Z,8.01
2019-01-13T13:43:34.115Z,8.03
2019-01-13T13:46:05.789Z,8.01
2019-01-13T13:48:36.400Z,8.03
2019-01-13T13:51:07.162Z,8.02
2019-01-13T13:53:37.793Z,8.04
2019-01-13T13:56:08.553Z,8.04
2019-01-13T13:58:39.120Z,8.04
2019-01-13T14:01:09.692Z,8.06
2019-01-13T14:03:45.688Z,8.06
2019-01-13T14:06:12.504Z,8.03
2019-01-13T14:08:43.309Z,7.99
2019-01-13T14:11:13.837Z,7.94
2019-01-13T14:13:44.585Z,7.95
2019-01-13T14:16:15.042Z,7.91
2019-01-13T14:18:45.532Z,7.90
2019-01-13T14:21:15.994Z,7.91
2019-01-13T14:23:46.524Z,7.86
2019-01-13T14:26:17.112Z,7.85
2019-01-13T14:28:47.589Z,7.86
2019-01-13T14:31:18.126Z,7.87
2019-01-13T14:33:52.846Z,7.85
2019-01-13T14:36:20.878Z,7.81
2019-01-13T14:38:51.381Z,7.80
2019-01-13T14:41:21.900Z,7.79
2019-01-13T14:43:52.435Z,7.81
2019-01-13T14:46:23.038Z,7.80
2019-01-13T14:48:53.552Z,7.74
2019-01-13T14:51:24.066Z,7.75
2019-01-13T14:53:54.596Z,7.71
2019-01-13T14:56:25.091Z,7.67
2019-01-13T14:58:55.563Z,7.61
2019-01-13T15:01:26.144Z,7.54
2019-01-13T15:04:00.000Z,7.50
2019-01-13T15:06:28.866Z,7.46
2019-01-13T15:08:59.410Z,7.43
2019-01-13T15:30:32.785Z,7.10
2019-01-13T15:33:03.320Z,7.02
2019-01-13T15:35:35.238Z,7.00
2019-01-13T15:38:06.984Z,6.96
2019-01-13T15:40:38.062Z,6.96
2019-01-13T15:43:10.496Z,7.00
2019-01-13T15:45:41.835Z,6.97
2019-01-13T15:48:12.899Z,6.92
2019-01-13T15:50:48.513Z,6.95
2019-01-13T15:53:19.142Z,6.97
2019-01-13T15:55:50.019Z,6.94
2019-01-13T15:58:21.100Z,6.99
2019-01-13T16:00:52.745Z,6.99
2019-01-13T16:03:32.908Z,7.01
2019-01-13T16:06:03.593Z,6.99
2019-01-13T16:08:34.224Z,6.98
2019-01-13T16:11:08.394Z,6.97
2019-01-13T16:13:39.038Z,6.97
2019-01-13T16:16:10.207Z,6.90
2019-01-13T16:18:41.209Z,6.94
2019-01-13T16:21:13.657Z,6.88
2019-01-13T16:23:49.461Z,6.90
2019-01-13T17:14:59.940Z,6.73
2019-01-13T17:17:33.155Z,6.77
2019-01-13T17:20:03.869Z,6.77
2019-01-13T17:22:34.522Z,6.74
2019-01-13T17:25:06.694Z,6.76
2019-01-13T17:27:37.959Z,6.76
2019-01-13T17:30:13.804Z,6.70
2019-01-13T17:32:44.408Z,6.71
2019-01-13T17:35:15.194Z,6.70
2019-01-13T17:37:45.884Z,6.65
2019-01-13T17:40:19.486Z,6.70
2019-01-13T17:42:50.212Z,6.74
2019-01-13T17:45:29.970Z,6.71
2019-01-13T17:48:19.951Z,6.59
2019-01-13T17:50:56.211Z,6.54
2019-01-13T17:53:27.245Z,6.63
2019-01-13T17:55:57.934Z,6.62
2019-01-13T17:58:28.730Z,6.74
2019-01-13T18:01:34.484Z,6.75
2019-01-13T18:04:05.597Z,6.73
2019-01-13T18:06:36.413Z,6.78
2019-01-13T18:09:09.903Z,6.82
2019-01-13T18:11:40.937Z,6.81
2019-01-13T18:14:11.715Z,6.80
2019-01-13T18:16:42.622Z,6.79
2019-01-13T18:19:40.735Z,6.74
2019-01-13T18:22:11.754Z,6.73
2019-01-13T18:24:45.101Z,6.75
2019-01-13T18:27:15.729Z,6.73
2019-01-13T18:29:46.491Z,6.75
2019-01-13T18:32:17.938Z,6.76
2019-01-13T18:34:50.472Z,6.81
2019-01-13T18:37:20.937Z,6.77
2019-01-13T18:39:51.630Z,6.76
2019-01-13T18:42:22.518Z,6.75
2019-01-13T18:44:53.201Z,6.72
2019-01-13T18:47:23.846Z,6.74
2019-01-13T18:49:54.451Z,6.68
2019-01-13T18:52:25.130Z,6.69
2019-01-13T18:54:55.746Z,6.68
2019-01-13T18:57:26.291Z,6.73
2019-01-13T18:59:56.859Z,6.68
2019-01-13T19:02:27.417Z,6.70
2019-01-13T19:04:58.193Z,6.68
2019-01-13T19:07:28.759Z,6.75
2019-01-13T19:09:59.428Z,6.73
2019-01-13T19:12:30.507Z,6.74
2019-01-13T19:15:04.059Z,6.66
2019-01-13T19:17:34.692Z,6.68
2019-01-13T19:20:15.727Z,6.65
2019-01-13T19:22:53.995Z,6.68
2019-01-13T19:25:33.798Z,6.64
2019-01-13T19:28:04.970Z,6.70
2019-01-13T19:30:35.609Z,6.77
2019-01-13T19:33:06.657Z,6.76
2019-01-13T19:35:37.277Z,6.76
2019-01-13T19:38:27.187Z,6.78
2019-01-13T19:40:58.284Z,6.72
2019-01-13T19:43:28.848Z,6.67
2019-01-13T19:45:59.547Z,6.68
2019-01-13T19:48:30.268Z,6.67
2019-01-13T19:51:00.908Z,6.72
2019-01-13T19:53:33.440Z,6.85
2019-01-13T19:56:08.483Z,6.93
2019-01-13T19:58:40.102Z,6.93
2019-01-13T20:01:11.007Z,6.93
2019-01-13T20:03:42.065Z,6.98
2019-01-13T20:06:12.714Z,6.94
2019-01-13T20:08:43.366Z,6.98
2019-01-13T20:11:14.602Z,6.96
2019-01-13T20:13:45.838Z,6.97
2019-01-13T20:16:16.808Z,6.97
2019-01-13T20:18:49.776Z,6.92
2019-01-13T20:21:20.544Z,6.92
2019-01-13T20:23:52.533Z,6.85
2019-01-13T20:26:23.356Z,6.82
2019-01-13T20:28:54.054Z,6.76
2019-01-13T20:31:24.873Z,6.75
2019-01-13T20:34:34.118Z,6.69
2019-01-13T20:37:12.708Z,6.55
2019-01-13T20:39:57.973Z,6.48
2019-01-13T20:42:31.223Z,6.42
2019-01-13T20:53:17.390Z,5.34
2019-01-13T20:55:48.319Z,6.32
2019-01-13T20:58:21.760Z,6.30
2019-01-13T21:01:02.335Z,6.31
2019-01-13T21:06:27.191Z,6.24
2019-01-13T21:08:58.156Z,6.19
2019-01-13T21:11:30.312Z,6.14
2019-01-13T21:14:01.212Z,6.13
2019-01-13T21:16:32.015Z,6.13
2019-01-13T21:19:10.198Z,6.09
2019-01-13T21:21:41.925Z,6.03
2019-01-13T21:24:13.292Z,6.08
2019-01-13T21:26:44.911Z,6.04
2019-01-13T21:29:21.015Z,6.03
2019-01-13T22:04:31.905Z,5.59
2019-01-13T22:07:02.406Z,5.51
2019-01-13T22:09:32.939Z,5.55
2019-01-13T22:12:03.599Z,5.54
2019-01-13T22:14:34.283Z,5.48
2019-01-13T22:17:04.949Z,5.43
2019-01-13T22:19:35.606Z,5.45
2019-01-13T22:22:06.854Z,5.40
2019-01-13T22:24:37.388Z,5.39
2019-01-13T22:27:07.961Z,5.29
2019-01-13T22:29:38.549Z,5.31
2019-01-13T22:32:09.249Z,5.28
2019-01-13T22:34:39.810Z,5.27
2019-01-13T22:37:10.948Z,5.21
2019-01-13T22:39:41.459Z,5.17
2019-01-13T22:42:11.973Z,5.16
2019-01-13T22:44:42.497Z,5.11
2019-01-13T22:47:14.794Z,5.12
2019-01-13T22:49:45.440Z,5.01
2019-01-13T22:52:15.965Z,5.01
2019-01-13T22:54:48.816Z,5.01
2019-01-13T22:57:19.338Z,4.92
2019-01-13T22:59:49.863Z,4.94
2019-01-13T23:02:20.373Z,4.85
2019-01-13T23:04:50.992Z,4.84
2019-01-13T23:07:21.502Z,4.72
2019-01-13T23:09:51.990Z,4.68
2019-01-13T23:12:22.504Z,4.66
2019-01-13T23:14:53.086Z,4.70
2019-01-13T23:17:23.566Z,4.73
2019-01-13T23:19:54.108Z,4.74
2019-01-13T23:22:24.606Z,4.71
2019-01-13T23:24:55.103Z,4.67
2019-01-13T23:27:25.648Z,4.64
2019-01-13T23:29:56.164Z,4.70
2019-01-13T23:32:26.728Z,4.62
2019-01-13T23:34:57.274Z,4.62
2019-01-13T23:37:27.821Z,4.60
2019-01-13T23:39:58.361Z,4.59
2019-01-13T23:42:28.894Z,4.54
2019-01-13T23:44:59.494Z,4.52
2019-01-13T23:47:29.999Z,4.49
2019-01-13T23:50:00.569Z,4.43
2019-01-13T23:52:31.088Z,4.36
2019-01-13T23:55:01.626Z,4.37
2019-01-13T23:57:32.231Z,4.35
